Time;durP1;ratioP1;P1;durP2;ratioP2;P2;SDS_P1;SDS_P2;PMS_P1;PMS_P2;Temp;Humidity;BMP_temperature;BMP_pressure;BME280_temperature;BME280_humidity;BME280_pressure;Samples;Min_cycle;Max_cycle;Signal;HPM_P1;HPM_P2
2022/11/19 00:01:26;;;;;;;1.65;0.50;;;22.90;99.90;;;;;;5051014;28;20288;-79
2022/11/19 00:03:57;;;;;;;5.78;0.80;;;22.80;99.90;;;;;;5046577;28;20194;-76
2022/11/19 00:06:29;;;;;;;3.15;0.75;;;22.80;99.90;;;;;;5042508;28;20312;-76
2022/11/19 00:09:03;;;;;;;3.40;0.68;;;22.60;99.90;;;;;;5059452;28;20244;-79
2022/11/19 00:14:27;;;;;;;3.47;0.70;;;22.70;99.90;;;;;;5047491;28;20205;-77
2022/11/19 00:16:59;;;;;;;2.05;0.65;;;22.70;99.90;;;;;;5047374;28;20201;-79
2022/11/19 00:19:30;;;;;;;3.25;1.00;;;22.70;99.90;;;;;;5047279;28;20198;-80
2022/11/19 00:22:03;;;;;;;8.15;0.90;;;22.60;99.90;;;;;;5057097;28;20276;-79
2022/11/19 00:24:34;;;;;;;3.72;0.80;;;23.00;99.90;;;;;;5041199;28;20382;-78
2022/11/19 00:27:07;;;;;;;4.28;1.08;;;23.10;99.90;;;;;;5045825;28;20213;-79
2022/11/19 00:29:39;;;;;;;6.03;0.90;;;23.30;99.90;;;;;;5045045;28;20255;-78
2022/11/19 00:32:11;;;;;;;5.40;0.80;;;23.30;99.90;;;;;;5042870;28;20240;-77
2022/11/19 00:34:42;;;;;;;1.75;0.68;;;23.20;99.90;;;;;;5044326;28;20202;-76
2022/11/19 00:37:13;;;;;;;2.03;0.68;;;23.20;99.90;;;;;;5043796;28;20323;-79
2022/11/19 00:39:46;;;;;;;5.13;0.95;;;23.20;99.90;;;;;;5045539;28;20292;-79
2022/11/19 00:42:19;;;;;;;4.38;1.02;;;23.20;99.90;;;;;;5050919;28;20211;-78
2022/11/19 00:44:50;;;;;;;5.20;0.80;;;23.10;99.90;;;;;;5049022;28;20194;-78
2022/11/19 00:47:21;;;;;;;5.30;1.08;;;23.40;99.90;;;;;;5041749;28;20704;-76
2022/11/19 00:49:55;;;;;;;3.08;0.60;;;23.60;99.90;;;;;;5048874;28;20193;-80
2022/11/19 00:52:26;;;;;;;2.22;0.70;;;23.30;99.90;;;;;;5044942;28;20201;-81
2022/11/19 00:54:59;;;;;;;3.75;0.77;;;23.10;99.90;;;;;;5043852;28;20243;-80
2022/11/19 00:57:33;;;;;;;2.42;0.70;;;23.40;99.90;;;;;;5044582;28;20240;-78
2022/11/19 01:00:05;;;;;;;2.95;0.60;;;23.50;99.90;;;;;;5046029;28;20604;-79
2022/11/19 01:02:36;;;;;;;4.30;0.88;;;23.80;99.90;;;;;;5050476;28;20237;-80
2022/11/19 01:05:08;;;;;;;3.92;1.25;;;23.70;99.90;;;;;;5045766;28;20717;-78
2022/11/19 01:07:39;;;;;;;3.10;0.80;;;23.60;99.90;;;;;;5050601;28;20339;-80
2022/11/19 01:10:11;;;;;;;3.38;0.85;;;23.50;99.90;;;;;;5046227;28;20217;-80
2022/11/19 01:15:30;;;;;;;2.92;0.70;;;23.70;99.90;;;;;;5054736;28;20197;-78
2022/11/19 01:18:01;;;;;;;3.53;0.77;;;23.90;99.90;;;;;;5049729;28;20194;-78
2022/11/19 01:20:33;;;;;;;5.70;0.80;;;23.90;99.90;;;;;;5055051;28;20273;-78
2022/11/19 01:23:05;;;;;;;3.42;0.65;;;23.80;99.90;;;;;;5044866;28;20214;-80
2022/11/19 01:25:36;;;;;;;7.90;1.13;;;23.60;99.90;;;;;;5042633;28;20700;-80
2022/11/19 01:28:10;;;;;;;5.28;1.00;;;23.10;99.90;;;;;;5054673;28;20194;-80
2022/11/19 01:30:44;;;;;;;3.00;0.80;;;22.90;99.90;;;;;;5048393;28;20231;-79
2022/11/19 01:33:16;;;;;;;3.05;0.95;;;22.50;99.90;;;;;;5054239;28;20194;-79
2022/11/19 01:35:55;;;;;;;3.80;0.98;;;22.40;99.90;;;;;;5051665;28;20236;-79
2022/11/19 01:38:27;;;;;;;4.95;0.70;;;22.50;99.90;;;;;;5050412;28;20198;-78
2022/11/19 01:40:59;;;;;;;4.13;1.00;;;22.70;99.90;;;;;;5039343;28;20209;-78
2022/11/19 01:43:50;;;;;;;3.42;0.90;;;22.90;99.90;;;;;;5048009;28;20676;-80
2022/11/19 01:46:22;;;;;;;3.65;1.02;;;23.30;99.90;;;;;;5044095;28;20341;-80
2022/11/19 01:48:56;;;;;;;2.78;0.82;;;23.40;99.90;;;;;;5066565;28;20186;-80
2022/11/19 01:51:31;;;;;;;10.60;1.20;;;23.30;99.90;;;;;;5048157;28;20200;-79
2022/11/19 01:54:07;;;;;;;4.32;0.80;;;23.20;99.90;;;;;;5046173;28;20704;-78
2022/11/19 01:56:39;;;;;;;5.57;1.15;;;23.30;99.90;;;;;;5043506;28;20193;-79
2022/11/19 01:59:17;;;;;;;2.33;0.70;;;23.60;99.90;;;;;;5046044;28;20197;-79
2022/11/19 02:01:49;;;;;;;4.55;0.90;;;23.60;99.90;;;;;;5048612;28;20288;-79
2022/11/19 02:04:22;;;;;;;5.28;0.90;;;23.40;99.90;;;;;;5050111;28;20194;-82
2022/11/19 02:06:55;;;;;;;6.68;0.98;;;23.60;99.90;;;;;;5043677;28;20245;-80
2022/11/19 02:09:27;;;;;;;2.85;0.90;;;23.60;99.90;;;;;;5050942;28;20233;-80
2022/11/19 02:12:16;;;;;;;5.85;1.05;;;23.50;99.90;;;;;;5052825;28;20198;-81
2022/11/19 02:15:31;;;;;;;5.70;0.90;;;23.50;99.90;;;;;;5047454;28;20297;-84
2022/11/19 02:18:20;;;;;;;5.60;1.30;;;23.60;99.90;;;;;;5047090;28;20292;-80
2022/11/19 02:21:03;;;;;;;5.13;1.02;;;23.70;99.90;;;;;;5046118;28;20213;-81
2022/11/19 02:23:58;;;;;;;3.90;0.95;;;23.70;99.90;;;;;;5047881;28;20202;-78
2022/11/19 02:27:06;;;;;;;2.13;0.68;;;23.60;99.90;;;;;;5048222;28;20210;-80
2022/11/19 02:30:15;;;;;;;4.03;0.90;;;23.40;99.90;;;;;;5060146;28;20690;-80
2022/11/19 02:32:59;;;;;;;6.15;1.20;;;23.30;99.90;;;;;;5051565;28;20205;-77
2022/11/19 02:35:52;;;;;;;7.03;1.00;;;23.20;99.90;;;;;;5053183;28;20184;-76
2022/11/19 02:38:33;;;;;;;7.30;1.33;;;23.20;99.90;;;;;;5045103;28;20230;-79
2022/11/19 02:44:57;;;;;;;8.32;1.13;;;23.20;99.90;;;;;;5051600;28;20198;-80
2022/11/19 02:46:57;;;;;;;4.50;0.80;;;23.00;99.90;;;;;;5050486;28;20685;-77
2022/11/19 02:49:33;;;;;;;3.30;0.70;;;23.00;99.90;;;;;;5044892;28;20215;-79
2022/11/19 02:52:06;;;;;;;6.03;1.00;;;22.80;99.90;;;;;;5046056;28;20277;-80
2022/11/19 02:54:37;;;;;;;6.32;0.98;;;22.60;99.90;;;;;;5047151;28;21235;-79
2022/11/19 02:57:09;;;;;;;2.83;0.90;;;22.50;99.90;;;;;;5052871;28;20236;-80
2022/11/19 03:05:27;;;;;;;4.35;0.98;;;22.30;99.90;;;;;;5046044;28;20189;-80
2022/11/19 03:07:59;;;;;;;6.32;0.80;;;22.30;99.90;;;;;;5048364;28;20325;-80
2022/11/19 03:10:34;;;;;;;4.45;0.80;;;22.30;99.90;;;;;;5043182;28;20198;-80
2022/11/19 03:18:52;;;;;;;5.43;0.70;;;22.60;99.90;;;;;;5045423;28;20200;-77
2022/11/19 03:21:27;;;;;;;4.07;0.75;;;22.70;99.90;;;;;;5043370;28;20642;-77
2022/11/19 03:24:03;;;;;;;3.58;0.70;;;22.70;99.90;;;;;;5046253;28;20229;-77
2022/11/19 03:26:40;;;;;;;6.20;0.65;;;22.60;99.90;;;;;;5049886;28;20648;-79
2022/11/19 03:29:14;;;;;;;4.07;0.80;;;22.60;99.90;;;;;;5041734;28;20609;-78
2022/11/19 03:31:49;;;;;;;4.13;0.82;;;22.70;99.90;;;;;;5051181;28;20201;-78
2022/11/19 03:34:27;;;;;;;4.43;0.82;;;22.80;99.90;;;;;;5048210;28;20193;-78
2022/11/19 03:37:02;;;;;;;7.45;0.73;;;22.90;99.90;;;;;;5041684;28;20676;-78
2022/11/19 03:39:37;;;;;;;4.25;0.90;;;22.90;99.90;;;;;;5046642;28;20204;-78
2022/11/19 03:42:11;;;;;;;4.57;0.88;;;22.90;99.90;;;;;;5048273;28;20193;-77
2022/11/19 03:44:45;;;;;;;2.53;0.60;;;22.80;99.90;;;;;;5048476;28;20207;-78
2022/11/19 03:47:20;;;;;;;4.50;0.93;;;22.80;99.90;;;;;;5043476;28;20222;-76
2022/11/19 03:50:00;;;;;;;3.45;0.80;;;22.70;99.90;;;;;;5046222;28;20225;-76
2022/11/19 03:52:32;;;;;;;3.78;0.95;;;22.60;99.90;;;;;;5043176;28;20188;-80
2022/11/19 03:55:04;;;;;;;3.67;1.00;;;22.70;99.90;;;;;;5050905;28;20721;-78
2022/11/19 03:57:35;;;;;;;5.68;1.13;;;22.70;99.90;;;;;;5045630;28;20648;-79
2022/11/19 04:00:08;;;;;;;6.93;1.02;;;22.70;99.90;;;;;;5049691;28;20204;-79
2022/11/19 04:02:42;;;;;;;4.72;1.00;;;22.70;99.90;;;;;;5043084;28;20189;-79
2022/11/19 04:05:16;;;;;;;6.47;0.70;;;22.80;99.90;;;;;;5050843;28;20276;-77
2022/11/19 04:07:49;;;;;;;5.50;0.88;;;22.90;99.90;;;;;;5055871;28;20235;-76
2022/11/19 04:10:21;;;;;;;3.38;0.70;;;22.80;99.90;;;;;;5048634;28;20221;-79
2022/11/19 04:12:51;;;;;;;2.42;0.75;;;22.80;99.90;;;;;;5053001;28;20267;-79
2022/11/19 04:15:23;;;;;;;3.67;0.93;;;23.00;99.90;;;;;;5051679;28;20192;-79
2022/11/19 04:17:54;;;;;;;3.35;0.95;;;23.00;99.90;;;;;;5050668;28;20194;-79
2022/11/19 04:20:29;;;;;;;4.18;0.70;;;23.00;99.90;;;;;;5047569;28;20209;-78
2022/11/19 04:23:00;;;;;;;7.70;0.80;;;22.70;99.90;;;;;;5042579;28;20190;-77
2022/11/19 04:25:31;;;;;;;5.18;1.20;;;22.50;99.90;;;;;;5041923;28;20200;-78
2022/11/19 04:28:03;;;;;;;4.82;0.85;;;22.40;99.90;;;;;;5041628;28;20637;-79
2022/11/19 04:30:35;;;;;;;3.78;0.90;;;22.30;99.90;;;;;;5044774;28;20276;-79
2022/11/19 04:33:06;;;;;;;2.38;0.70;;;22.40;99.90;;;;;;5042495;28;20246;-78
2022/11/19 04:35:41;;;;;;;6.17;1.07;;;22.50;99.90;;;;;;5050801;28;20532;-78
2022/11/19 04:38:12;;;;;;;4.72;1.05;;;22.60;99.90;;;;;;5052312;28;20949;-77
2022/11/19 04:40:44;;;;;;;3.67;1.27;;;22.70;99.90;;;;;;5050460;28;20285;-75
2022/11/19 04:43:15;;;;;;;2.88;0.90;;;22.80;99.90;;;;;;5052174;28;20181;-77
2022/11/19 04:45:46;;;;;;;6.38;0.82;;;22.70;99.90;;;;;;5048892;28;20208;-78
2022/11/19 04:48:17;;;;;;;5.00;0.93;;;22.70;99.90;;;;;;5051712;28;20309;-77
2022/11/19 04:50:51;;;;;;;5.45;1.00;;;22.80;99.90;;;;;;5049437;28;20203;-77
2022/11/19 04:53:23;;;;;;;3.42;0.82;;;22.70;99.90;;;;;;5046607;28;20217;-77
2022/11/19 04:55:54;;;;;;;5.32;1.00;;;22.70;99.90;;;;;;5055549;28;20197;-78
2022/11/19 04:58:25;;;;;;;6.00;0.80;;;22.70;99.90;;;;;;5051396;28;20400;-77
2022/11/19 05:00:57;;;;;;;7.53;0.90;;;22.90;99.90;;;;;;5056793;28;20225;-78
2022/11/19 05:03:28;;;;;;;5.97;1.05;;;22.90;99.90;;;;;;5054131;28;20197;-76
2022/11/19 05:06:02;;;;;;;5.13;0.93;;;22.60;99.90;;;;;;5046950;28;20185;-76
2022/11/19 05:08:33;;;;;;;4.97;0.90;;;22.40;99.90;;;;;;5050778;28;20264;-76
2022/11/19 05:11:05;;;;;;;8.65;1.02;;;22.30;99.90;;;;;;5045735;28;20190;-78
2022/11/19 05:13:36;;;;;;;6.15;1.02;;;22.20;99.90;;;;;;5050829;28;20210;-78
2022/11/19 05:16:07;;;;;;;4.82;0.88;;;22.10;99.90;;;;;;5055558;28;20284;-79
2022/11/19 05:18:38;;;;;;;3.72;0.95;;;22.10;99.90;;;;;;5056143;28;20204;-78
2022/11/19 05:21:13;;;;;;;5.45;0.60;;;22.20;99.90;;;;;;5053166;28;20285;-76
2022/11/19 05:23:44;;;;;;;7.85;1.15;;;22.30;99.90;;;;;;5053313;28;20293;-77
2022/11/19 05:26:15;;;;;;;4.60;0.88;;;22.30;99.90;;;;;;5052619;28;20284;-77
2022/11/19 05:28:48;;;;;;;6.68;0.90;;;22.30;99.90;;;;;;5056738;28;20289;-78
2022/11/19 05:31:18;;;;;;;5.65;1.15;;;22.30;99.90;;;;;;5054734;28;20309;-77
2022/11/19 05:33:50;;;;;;;2.42;0.80;;;22.30;99.90;;;;;;5055305;28;21730;-80
2022/11/19 05:36:24;;;;;;;5.93;0.93;;;22.20;99.90;;;;;;5055466;28;20304;-80
2022/11/19 05:38:56;;;;;;;5.65;0.80;;;22.20;99.90;;;;;;5060348;28;20334;-77
2022/11/19 05:41:27;;;;;;;3.53;1.00;;;22.20;99.90;;;;;;5057955;28;20227;-79
2022/11/19 05:43:59;;;;;;;5.15;0.85;;;22.20;99.90;;;;;;5046670;28;20202;-79
2022/11/19 05:46:30;;;;;;;7.32;1.00;;;22.10;99.90;;;;;;5054527;28;20248;-79
2022/11/19 05:49:02;;;;;;;5.22;1.10;;;22.10;99.90;;;;;;5051771;28;20653;-80
2022/11/19 05:51:37;;;;;;;3.88;1.08;;;22.10;99.90;;;;;;5047733;28;20199;-79
2022/11/19 05:54:09;;;;;;;6.50;1.45;;;22.00;99.90;;;;;;5043375;28;20198;-78
2022/11/19 05:56:40;;;;;;;3.55;0.82;;;22.00;99.90;;;;;;5050502;28;20292;-75
2022/11/19 05:59:11;;;;;;;5.60;0.85;;;22.10;99.90;;;;;;5043936;28;20204;-77
2022/11/19 06:01:43;;;;;;;5.60;1.00;;;22.10;99.90;;;;;;5049151;28;20204;-79
2022/11/19 06:04:15;;;;;;;4.40;1.00;;;22.00;99.90;;;;;;5059582;28;20683;-78
2022/11/19 06:06:48;;;;;;;5.97;1.33;;;22.10;99.90;;;;;;5043113;28;20204;-77
2022/11/19 06:09:20;;;;;;;7.60;0.95;;;22.20;99.90;;;;;;5054411;28;20304;-77
2022/11/19 06:11:52;;;;;;;3.53;1.00;;;22.30;99.90;;;;;;5050392;28;20201;-77
2022/11/19 06:14:25;;;;;;;6.38;0.88;;;22.30;99.90;;;;;;5045574;28;20696;-76
2022/11/19 06:16:58;;;;;;;5.50;1.13;;;22.30;99.90;;;;;;5052262;28;20669;-76
2022/11/19 06:19:29;;;;;;;9.15;0.90;;;22.20;99.90;;;;;;5052446;28;20298;-76
2022/11/19 06:22:04;;;;;;;7.68;1.10;;;22.00;99.90;;;;;;5045601;28;20568;-77
2022/11/19 06:24:35;;;;;;;8.25;1.10;;;22.10;99.90;;;;;;5047638;28;20224;-78
2022/11/19 06:27:06;;;;;;;7.75;0.90;;;22.00;99.90;;;;;;5048261;28;20200;-76
2022/11/19 06:29:37;;;;;;;6.30;0.90;;;22.10;99.90;;;;;;5057854;28;20638;-77
2022/11/19 06:32:10;;;;;;;4.68;0.90;;;22.10;99.90;;;;;;5042167;28;20309;-76
2022/11/19 06:34:45;;;;;;;6.75;1.23;;;22.10;99.90;;;;;;5045657;28;20657;-76
2022/11/19 06:37:19;;;;;;;10.23;1.30;;;22.10;99.90;;;;;;5052242;28;20225;-76
2022/11/19 06:39:50;;;;;;;6.93;1.17;;;22.10;99.90;;;;;;5052554;28;20611;-78
2022/11/19 06:42:40;;;;;;;6.65;1.13;;;22.20;99.90;;;;;;5046213;28;20692;-77
2022/11/19 06:45:14;;;;;;;4.25;0.93;;;22.10;99.90;;;;;;5052099;28;20200;-76
2022/11/19 06:47:49;;;;;;;10.18;1.48;;;22.00;99.90;;;;;;5047196;28;20684;-76
2022/11/19 06:50:21;;;;;;;5.65;1.15;;;22.00;99.90;;;;;;5053814;28;20200;-77
2022/11/19 06:52:53;;;;;;;9.90;1.48;;;22.00;99.90;;;;;;5049396;28;20249;-77
2022/11/19 06:55:24;;;;;;;7.28;1.23;;;22.00;99.90;;;;;;5050414;28;20199;-81
2022/11/19 06:57:56;;;;;;;10.50;1.40;;;22.00;99.90;;;;;;5045510;28;20197;-79
2022/11/19 07:00:28;;;;;;;9.57;1.40;;;21.90;99.90;;;;;;5052347;28;20201;-78
2022/11/19 07:03:00;;;;;;;5.97;1.40;;;21.90;99.90;;;;;;5046412;28;20304;-78
2022/11/19 07:05:31;;;;;;;7.60;1.40;;;21.80;99.90;;;;;;5040323;28;20201;-80
2022/11/19 07:08:05;;;;;;;6.57;1.00;;;21.80;99.90;;;;;;5050309;28;20236;-78
2022/11/19 07:10:37;;;;;;;6.32;1.38;;;21.80;99.90;;;;;;5056489;28;20200;-77
2022/11/19 07:13:09;;;;;;;6.80;1.30;;;21.70;99.90;;;;;;5047751;28;20295;-78
2022/11/19 07:15:40;;;;;;;5.97;1.50;;;21.70;99.90;;;;;;5045531;28;20276;-76
2022/11/19 07:18:12;;;;;;;7.80;1.60;;;21.70;99.90;;;;;;5046312;28;20289;-78
2022/11/19 07:20:47;;;;;;;10.70;1.60;;;21.70;99.90;;;;;;5052045;28;20202;-77
2022/11/19 07:23:20;;;;;;;7.97;1.48;;;21.70;99.90;;;;;;5048655;28;20203;-79
2022/11/19 07:25:51;;;;;;;8.32;1.40;;;21.70;99.90;;;;;;5046084;28;20272;-79
2022/11/19 07:28:22;;;;;;;8.93;1.80;;;21.70;99.90;;;;;;5048774;28;20655;-80
2022/11/19 07:30:54;;;;;;;9.18;1.60;;;21.60;99.90;;;;;;5047541;28;20205;-79
2022/11/19 07:33:25;;;;;;;6.43;1.67;;;21.50;99.90;;;;;;5049589;28;20572;-79
2022/11/19 07:35:56;;;;;;;8.95;1.73;;;21.50;99.90;;;;;;5051381;28;20237;-78
2022/11/19 07:38:31;;;;;;;6.25;1.25;;;21.50;99.90;;;;;;5048768;28;20208;-76
2022/11/19 07:42:47;;;;;;;8.23;1.38;;;21.50;99.90;;;;;;5049056;28;20236;-78
2022/11/19 07:43:52;;;;;;;7.72;1.42;;;21.40;99.90;;;;;;5042734;28;20222;-77
2022/11/19 07:46:23;;;;;;;6.40;1.40;;;21.30;99.90;;;;;;5050064;28;20661;-78
2022/11/19 07:48:56;;;;;;;7.07;1.25;;;21.20;99.90;;;;;;5058986;28;20213;-78
2022/11/19 07:51:28;;;;;;;5.75;1.05;;;21.10;99.90;;;;;;5045647;28;20581;-80
2022/11/19 07:54:02;;;;;;;7.43;1.35;;;21.10;99.90;;;;;;5047389;28;20197;-80
2022/11/19 07:56:33;;;;;;;6.18;1.23;;;21.10;99.90;;;;;;5044241;28;20211;-78
2022/11/19 07:59:05;;;;;;;9.93;1.40;;;21.10;99.90;;;;;;5047575;28;20311;-79
2022/11/19 08:01:36;;;;;;;6.63;1.30;;;21.10;99.90;;;;;;5048582;28;20200;-79
2022/11/19 08:04:07;;;;;;;4.75;1.20;;;21.10;99.90;;;;;;5050291;28;20284;-79
2022/11/19 08:06:39;;;;;;;8.18;1.58;;;21.10;99.90;;;;;;5050738;28;20194;-80
2022/11/19 08:09:13;;;;;;;10.35;1.60;;;21.10;99.90;;;;;;5046611;28;20688;-79
2022/11/19 08:11:44;;;;;;;9.68;1.60;;;21.10;99.90;;;;;;5043793;28;20196;-79
2022/11/19 08:14:16;;;;;;;6.78;1.45;;;21.10;99.90;;;;;;5045387;28;20205;-80
2022/11/19 08:19:40;;;;;;;6.45;1.63;;;21.10;99.90;;;;;;5005277;28;20217;-78
2022/11/19 08:22:13;;;;;;;7.05;1.35;;;21.00;99.90;;;;;;5042968;28;20202;-79
2022/11/19 08:24:48;;;;;;;6.00;1.40;;;21.00;99.90;;;;;;5047642;28;20197;-79
2022/11/19 08:27:19;;;;;;;6.32;1.23;;;21.00;99.90;;;;;;5045750;28;20248;-81
2022/11/19 08:29:50;;;;;;;9.95;1.55;;;21.00;99.90;;;;;;5045051;28;20224;-80
2022/11/19 08:32:21;;;;;;;8.13;1.42;;;21.00;99.90;;;;;;5049935;28;20288;-81
2022/11/19 08:34:53;;;;;;;8.10;1.38;;;21.00;99.90;;;;;;5057792;28;20233;-78
2022/11/19 08:37:24;;;;;;;6.38;1.20;;;21.00;99.90;;;;;;5057029;28;20234;-80
2022/11/19 08:39:58;;;;;;;5.18;1.30;;;21.00;99.90;;;;;;5050637;28;20190;-79
2022/11/19 08:45:16;;;;;;;9.73;1.80;;;21.00;99.90;;;;;;5039084;28;20220;-80
2022/11/19 08:47:48;;;;;;;6.40;1.45;;;21.00;99.90;;;;;;5046482;28;20633;-79
2022/11/19 08:50:19;;;;;;;6.95;1.40;;;21.00;99.90;;;;;;5048761;28;20288;-80
2022/11/19 08:52:59;;;;;;;10.27;1.60;;;21.00;99.90;;;;;;5055936;28;20272;-81
2022/11/19 08:55:34;;;;;;;8.00;1.52;;;21.00;99.90;;;;;;5041845;28;20220;-81
2022/11/19 08:58:06;;;;;;;7.68;1.50;;;21.00;99.90;;;;;;5048519;28;20288;-79
2022/11/19 09:00:39;;;;;;;4.65;1.30;;;21.00;99.90;;;;;;5047536;28;20197;-81
2022/11/19 09:03:10;;;;;;;7.22;1.55;;;21.00;99.90;;;;;;5048273;28;20224;-81
2022/11/19 09:05:41;;;;;;;7.85;1.40;;;21.00;99.90;;;;;;5040624;28;20276;-80
2022/11/19 09:08:12;;;;;;;7.15;1.67;;;21.00;99.90;;;;;;5045087;28;20315;-81
2022/11/19 09:10:46;;;;;;;6.28;1.40;;;21.00;99.90;;;;;;5046823;28;20562;-80
2022/11/19 09:13:18;;;;;;;5.75;1.30;;;21.00;99.90;;;;;;5049528;28;20240;-80
2022/11/19 09:15:52;;;;;;;5.43;1.42;;;20.90;99.90;;;;;;5039318;28;20721;-80
2022/11/19 09:18:23;;;;;;;9.73;1.83;;;20.90;99.90;;;;;;5038402;28;20204;-80
2022/11/19 09:20:57;;;;;;;7.65;1.50;;;20.90;99.90;;;;;;5042156;28;20194;-80
2022/11/19 09:23:29;;;;;;;9.80;1.60;;;20.90;99.90;;;;;;5049182;28;20642;-79
2022/11/19 09:26:05;;;;;;;9.60;1.77;;;20.90;99.90;;;;;;5041672;28;20225;-80
2022/11/19 09:28:36;;;;;;;7.55;1.65;;;20.90;99.90;;;;;;5042046;28;20241;-79
2022/11/19 09:31:09;;;;;;;5.18;1.25;;;20.90;99.90;;;;;;5047378;28;20289;-80
2022/11/19 09:33:42;;;;;;;8.32;1.83;;;20.80;99.90;;;;;;5050312;28;20232;-80
2022/11/19 09:36:13;;;;;;;9.75;1.80;;;20.80;99.90;;;;;;5046194;28;20229;-79
2022/11/19 09:38:44;;;;;;;7.00;1.50;;;20.80;99.90;;;;;;5049218;28;20278;-79
2022/11/19 09:41:50;;;;;;;7.25;1.20;;;20.80;99.90;;;;;;5045438;28;20285;-76
2022/11/19 09:44:38;;;;;;;5.07;1.40;;;20.70;99.90;;;;;;5047492;28;20387;-79
2022/11/19 09:47:20;;;;;;;7.65;1.50;;;20.70;99.90;;;;;;5049577;28;20632;-81
2022/11/19 09:49:59;;;;;;;4.65;1.42;;;20.70;99.90;;;;;;5052670;28;20295;-80
2022/11/19 09:52:34;;;;;;;9.60;1.50;;;20.70;99.90;;;;;;5050737;28;20604;-79
2022/11/19 09:55:06;;;;;;;9.32;1.58;;;20.70;99.90;;;;;;5049686;28;20193;-80
2022/11/19 09:57:44;;;;;;;6.88;1.42;;;20.70;99.90;;;;;;5044440;28;20288;-80
2022/11/19 10:00:22;;;;;;;5.05;1.40;;;20.70;99.90;;;;;;5048098;28;20190;-80
2022/11/19 10:02:54;;;;;;;7.28;1.60;;;20.70;99.90;;;;;;5039193;28;20220;-79
2022/11/19 10:05:32;;;;;;;5.93;1.52;;;20.70;99.90;;;;;;5042935;28;20219;-82
2022/11/19 10:08:20;;;;;;;5.70;1.40;;;20.70;99.90;;;;;;5048495;28;20308;-81
2022/11/19 10:11:03;;;;;;;4.10;1.40;;;20.70;99.90;;;;;;5047677;28;20233;-80
2022/11/19 10:13:47;;;;;;;5.20;1.20;;;20.70;99.90;;;;;;5057354;28;20272;-80
2022/11/19 10:16:42;;;;;;;5.80;1.38;;;20.70;99.90;;;;;;5042484;28;20631;-78
2022/11/19 10:19:27;;;;;;;5.60;1.50;;;20.70;99.90;;;;;;5049694;28;20284;-78
2022/11/19 10:22:06;;;;;;;7.38;1.38;;;20.70;99.90;;;;;;5047658;28;20288;-81
2022/11/19 10:24:44;;;;;;;5.18;1.35;;;20.70;99.90;;;;;;5044395;28;20280;-80
2022/11/19 10:27:24;;;;;;;5.13;1.30;;;20.70;99.90;;;;;;5049710;28;20580;-80
2022/11/19 10:30:00;;;;;;;4.95;1.30;;;20.70;99.90;;;;;;5044390;28;20248;-81
2022/11/19 10:32:41;;;;;;;3.20;1.23;;;20.70;99.90;;;;;;5046129;28;20327;-80
2022/11/19 10:35:19;;;;;;;6.25;1.55;;;20.80;99.90;;;;;;5050562;28;20202;-80
2022/11/19 10:37:57;;;;;;;6.90;1.30;;;20.80;99.90;;;;;;5046941;28;20299;-82
2022/11/19 10:40:32;;;;;;;6.82;1.40;;;20.80;99.90;;;;;;5050241;28;20259;-79
2022/11/19 10:43:18;;;;;;;5.57;1.30;;;20.80;99.90;;;;;;5045977;28;20204;-82
2022/11/19 10:45:49;;;;;;;6.75;1.60;;;20.80;99.90;;;;;;5048801;28;20202;-81
2022/11/19 10:48:38;;;;;;;6.80;1.40;;;20.80;99.90;;;;;;5049430;28;20194;-80
2022/11/19 10:51:30;;;;;;;6.18;1.30;;;20.80;99.90;;;;;;5047671;28;20201;-80
2022/11/19 10:54:12;;;;;;;9.10;1.50;;;20.80;99.90;;;;;;5049736;28;20201;-79
2022/11/19 10:56:43;;;;;;;9.18;1.40;;;20.80;99.90;;;;;;5044581;28;20194;-78
2022/11/19 10:59:18;;;;;;;5.15;1.50;;;20.80;99.90;;;;;;5049679;28;20208;-81
2022/11/19 11:01:53;;;;;;;5.50;1.40;;;20.80;99.90;;;;;;5044478;28;20289;-83
2022/11/19 11:04:28;;;;;;;6.70;1.30;;;20.80;99.90;;;;;;5048851;28;20199;-82
2022/11/19 11:07:01;;;;;;;6.82;1.88;;;20.80;99.90;;;;;;5047974;28;20256;-79
2022/11/19 11:09:38;;;;;;;4.05;1.20;;;20.80;99.90;;;;;;5046044;28;20691;-80
2022/11/19 11:15:20;;;;;;;5.75;1.40;;;20.80;99.90;;;;;;4991325;28;20278;-76
2022/11/19 11:18:02;;;;;;;6.88;1.70;;;20.80;99.90;;;;;;5049099;28;20615;-80
2022/11/19 11:20:38;;;;;;;6.05;1.52;;;20.80;99.90;;;;;;5050867;28;21389;-79
2022/11/19 11:23:12;;;;;;;6.63;1.40;;;20.80;99.90;;;;;;5048140;28;21839;-80
2022/11/19 11:25:52;;;;;;;7.00;1.60;;;20.80;99.90;;;;;;5047677;28;20200;-81
2022/11/19 11:28:24;;;;;;;4.80;1.60;;;20.80;99.90;;;;;;5049191;28;20189;-80
2022/11/19 11:30:58;;;;;;;8.02;1.40;;;20.80;99.90;;;;;;5039274;28;20229;-78
2022/11/19 11:33:33;;;;;;;7.00;1.77;;;20.80;99.90;;;;;;5046307;28;20280;-79
2022/11/19 11:36:12;;;;;;;6.10;1.73;;;20.80;99.90;;;;;;5038051;28;20225;-80
2022/11/19 11:38:46;;;;;;;8.70;1.70;;;20.80;99.90;;;;;;5048247;28;20189;-77
2022/11/19 11:41:19;;;;;;;9.60;2.15;;;20.80;99.90;;;;;;5048839;28;20328;-79
2022/11/19 11:44:02;;;;;;;8.95;2.00;;;20.70;99.90;;;;;;5044009;28;20208;-80
2022/11/19 11:46:45;;;;;;;6.28;1.52;;;20.70;99.90;;;;;;5051892;28;20208;-80
2022/11/19 11:49:26;;;;;;;7.30;1.63;;;20.70;99.90;;;;;;5042326;28;20216;-80
2022/11/19 11:52:31;;;;;;;3.72;1.55;;;20.70;99.90;;;;;;5054996;28;20232;-80
2022/11/19 11:55:09;;;;;;;4.45;1.40;;;20.60;99.90;;;;;;5050150;28;20246;-80
2022/11/19 11:57:55;;;;;;;4.70;1.48;;;20.60;99.90;;;;;;5049477;28;20272;-80
2022/11/19 12:00:36;;;;;;;7.10;1.50;;;20.60;99.90;;;;;;5046523;28;20193;-80
2022/11/19 12:03:08;;;;;;;4.85;1.40;;;20.50;99.90;;;;;;5045467;28;20264;-80
2022/11/19 12:05:49;;;;;;;6.43;1.60;;;20.60;99.90;;;;;;5049452;28;20232;-79
2022/11/19 12:08:32;;;;;;;4.78;1.50;;;20.60;99.90;;;;;;5054801;28;20652;-80
2022/11/19 12:11:15;;;;;;;9.00;1.70;;;20.60;99.90;;;;;;5048071;28;20328;-80
2022/11/19 12:13:59;;;;;;;7.25;1.73;;;20.60;99.90;;;;;;5045835;28;20221;-82
2022/11/19 12:16:56;;;;;;;8.30;1.80;;;20.60;99.90;;;;;;5039428;28;20343;-81
2022/11/19 12:19:44;;;;;;;5.60;1.60;;;20.60;99.90;;;;;;5038850;28;20190;-81
2022/11/19 12:22:22;;;;;;;5.57;1.40;;;20.60;99.90;;;;;;5039309;28;20281;-82
2022/11/19 12:25:08;;;;;;;5.10;1.50;;;20.60;99.90;;;;;;5038540;28;20272;-81
2022/11/19 12:27:52;;;;;;;7.18;1.50;;;20.70;99.90;;;;;;5050409;28;20194;-80
2022/11/19 12:30:24;;;;;;;9.52;1.50;;;20.70;99.90;;;;;;5049652;28;20303;-80
2022/11/19 12:33:19;;;;;;;5.05;1.52;;;20.80;99.90;;;;;;5052265;28;20272;-79
2022/11/19 12:36:05;;;;;;;6.43;1.60;;;20.80;99.90;;;;;;5040008;28;20309;-79
2022/11/19 12:38:47;;;;;;;10.60;1.70;;;20.80;99.90;;;;;;5040130;28;20237;-80
2022/11/19 12:41:35;;;;;;;5.05;1.60;;;20.80;99.90;;;;;;5046445;28;20205;-79
2022/11/19 12:44:19;;;;;;;4.93;1.42;;;20.80;99.90;;;;;;5048263;28;20198;-80
2022/11/19 12:46:58;;;;;;;4.32;1.58;;;20.80;99.90;;;;;;5041710;28;20280;-80
2022/11/19 12:49:59;;;;;;;9.45;1.60;;;20.80;99.90;;;;;;5045654;28;20221;-80
2022/11/19 12:52:49;;;;;;;2.88;1.50;;;20.80;99.90;;;;;;5042762;28;20605;-80
2022/11/19 12:55:30;;;;;;;5.80;1.23;;;20.80;99.90;;;;;;5047339;28;20284;-80
2022/11/19 12:58:08;;;;;;;3.75;1.52;;;20.70;99.90;;;;;;5046351;28;20200;-80
2022/11/19 13:00:53;;;;;;;6.32;1.60;;;20.70;99.90;;;;;;5042992;28;20211;-80
2022/11/19 13:03:33;;;;;;;8.35;1.92;;;20.70;99.90;;;;;;5044472;28;20212;-78
2022/11/19 13:06:09;;;;;;;8.35;1.67;;;20.60;99.90;;;;;;5049465;28;20221;-80
2022/11/19 13:08:44;;;;;;;8.88;1.50;;;20.50;99.90;;;;;;5041182;28;20663;-80
2022/11/19 13:11:21;;;;;;;6.40;1.70;;;20.40;99.90;;;;;;5049531;28;20225;-79
2022/11/19 13:13:56;;;;;;;6.18;1.40;;;20.40;99.90;;;;;;5043737;28;20280;-79
2022/11/19 13:16:32;;;;;;;4.88;1.60;;;20.40;99.90;;;;;;5045708;28;20237;-80
2022/11/19 13:19:14;;;;;;;8.27;2.00;;;20.30;99.90;;;;;;5055565;28;20269;-79
2022/11/19 13:21:50;;;;;;;8.40;2.00;;;20.30;99.90;;;;;;5039206;28;20679;-79
2022/11/19 13:24:34;;;;;;;4.18;1.50;;;20.20;99.90;;;;;;5057955;28;20270;-80
2022/11/19 13:27:08;;;;;;;5.68;1.65;;;20.20;99.90;;;;;;5048213;28;20190;-79
2022/11/19 13:29:47;;;;;;;6.07;1.60;;;20.20;99.90;;;;;;5051159;28;20316;-79
2022/11/19 13:32:28;;;;;;;5.10;1.75;;;20.10;99.90;;;;;;5048042;28;20225;-79
2022/11/19 13:35:11;;;;;;;2.97;1.58;;;20.10;99.90;;;;;;5052579;28;20289;-80
2022/11/19 13:37:50;;;;;;;5.32;1.83;;;20.00;99.90;;;;;;5048470;28;20244;-79
2022/11/19 13:40:28;;;;;;;7.70;1.67;;;20.00;99.90;;;;;;5047940;28;20193;-80
2022/11/19 13:45:50;;;;;;;6.45;1.80;;;19.90;99.90;;;;;;5054943;28;20192;-80
2022/11/19 13:48:29;;;;;;;5.85;1.58;;;19.80;99.90;;;;;;5049113;28;20197;-79
2022/11/19 13:51:08;;;;;;;8.07;1.50;;;19.80;99.90;;;;;;5043809;28;20691;-79
2022/11/19 13:53:43;;;;;;;6.32;1.70;;;19.70;99.90;;;;;;5052741;28;20232;-79
2022/11/19 13:56:18;;;;;;;5.93;1.63;;;19.70;99.90;;;;;;5048969;28;20193;-79
2022/11/19 13:58:52;;;;;;;10.98;2.03;;;19.70;99.90;;;;;;5054442;28;20259;-78
2022/11/19 14:01:49;;;;;;;9.63;1.98;;;19.60;99.90;;;;;;5052979;28;20542;-79